Time;durP1;ratioP1;P1;durP2;ratioP2;P2;SDS_P1;SDS_P2;PMS_P1;PMS_P2;Temp;Humidity;BMP_temperature;BMP_pressure;BME280_temperature;BME280_humidity;BME280_pressure;Samples;Min_cycle;Max_cycle;Signal;HPM_P1;HPM_P2
2023/08/01 00:00:41;;;;;;;3.03;2.40;;;;;;;;;;5094467;28;20055;-81
2023/08/01 00:03:08;;;;;;;2.28;2.08;;;;;;;;;;5095889;28;20424;-83
2023/08/01 00:05:35;;;;;;;2.17;1.98;;;;;;;;;;5095639;28;20044;-84
2023/08/01 00:08:03;;;;;;;2.25;1.90;;;;;;;;;;5094210;28;20093;-83
2023/08/01 00:10:30;;;;;;;1.95;1.83;;;;;;;;;;5094598;28;20074;-84
2023/08/01 00:12:57;;;;;;;1.73;1.63;;;;;;;;;;5096025;28;20040;-83
2023/08/01 00:15:24;;;;;;;2.38;1.80;;;;;;;;;;5094113;28;20135;-82
2023/08/01 00:17:52;;;;;;;1.92;1.80;;;;;;;;;;5095614;28;20102;-81
2023/08/01 00:20:19;;;;;;;1.80;1.42;;;;;;;;;;5094234;28;20044;-86
2023/08/01 00:22:46;;;;;;;1.65;1.55;;;;;;;;;;5094026;28;20040;-82
2023/08/01 00:25:13;;;;;;;3.10;1.65;;;;;;;;;;5093503;28;20109;-83
2023/08/01 00:27:41;;;;;;;2.33;1.50;;;;;;;;;;5093835;28;20101;-81
2023/08/01 00:30:08;;;;;;;1.77;1.67;;;;;;;;;;5093951;28;20048;-84
2023/08/01 00:32:36;;;;;;;2.55;1.70;;;;;;;;;;5098212;28;20051;-83
2023/08/01 00:35:04;;;;;;;1.98;1.60;;;;;;;;;;5096611;28;20435;-83
2023/08/01 00:37:31;;;;;;;2.47;1.58;;;;;;;;;;5096348;28;20048;-84
2023/08/01 00:39:58;;;;;;;2.45;1.65;;;;;;;;;;5097031;28;20070;-84
2023/08/01 00:42:26;;;;;;;1.77;1.67;;;;;;;;;;5098165;28;20109;-80
2023/08/01 00:44:54;;;;;;;2.97;1.50;;;;;;;;;;5098475;28;20098;-82
2023/08/01 00:47:21;;;;;;;1.65;1.42;;;;;;;;;;5095589;28;20048;-82
2023/08/01 00:49:48;;;;;;;1.48;1.40;;;;;;;;;;5096211;28;20116;-85
2023/08/01 00:52:15;;;;;;;2.40;1.30;;;;;;;;;;5095771;28;20101;-83
2023/08/01 00:54:42;;;;;;;1.63;1.50;;;;;;;;;;5096837;28;20048;-81
2023/08/01 00:57:10;;;;;;;2.53;1.50;;;;;;;;;;5095257;28;20051;-82
2023/08/01 00:59:37;;;;;;;1.55;1.45;;;;;;;;;;5094169;28;20052;-82
2023/08/01 01:02:05;;;;;;;2.13;1.30;;;;;;;;;;5096125;28;20537;-84
2023/08/01 01:04:32;;;;;;;4.35;1.27;;;;;;;;;;5094973;28;20097;-82
2023/08/01 01:07:07;;;;;;;1.10;1.00;;;;;;;;;;5094233;28;20048;-82
2023/08/01 01:09:34;;;;;;;0.98;0.98;;;;;;;;;;5095404;28;20093;-82
2023/08/01 01:12:01;;;;;;;4.47;0.93;;;;;;;;;;5096241;28;20093;-81
2023/08/01 01:14:29;;;;;;;2.15;1.25;;;;;;;;;;5094280;28;20052;-81
2023/08/01 01:16:56;;;;;;;4.03;0.98;;;;;;;;;;5092651;28;20055;-82
2023/08/01 01:19:24;;;;;;;5.20;1.23;;;;;;;;;;5092441;28;20063;-81
2023/08/01 01:21:51;;;;;;;2.05;1.25;;;;;;;;;;5094050;28;20052;-81
2023/08/01 01:24:19;;;;;;;1.55;0.85;;;;;;;;;;5093751;28;20047;-80
2023/08/01 01:26:47;;;;;;;1.02;1.02;;;;;;;;;;5111340;28;20051;-82
2023/08/01 01:29:14;;;;;;;1.33;1.23;;;;;;;;;;5113930;28;20055;-82
2023/08/01 01:31:42;;;;;;;7.65;1.63;;;;;;;;;;5114028;28;20461;-81
2023/08/01 01:34:10;;;;;;;2.28;1.40;;;;;;;;;;5095651;28;20120;-83
2023/08/01 01:36:37;;;;;;;2.88;0.95;;;;;;;;;;5095212;28;20048;-81
2023/08/01 01:39:05;;;;;;;1.05;1.00;;;;;;;;;;5095340;28;20048;-81
2023/08/01 01:41:32;;;;;;;1.02;1.00;;;;;;;;;;5095596;28;20052;-81
2023/08/01 01:43:59;;;;;;;3.53;1.10;;;;;;;;;;5113433;28;20067;-81
2023/08/01 01:46:26;;;;;;;0.98;0.93;;;;;;;;;;5113371;28;20054;-82
2023/08/01 01:48:54;;;;;;;1.50;1.40;;;;;;;;;;5095116;28;20043;-81
2023/08/01 01:51:26;;;;;;;0.90;0.90;;;;;;;;;;5095430;28;20112;-82
2023/08/01 01:53:53;;;;;;;0.95;0.93;;;;;;;;;;5113333;28;20097;-82
2023/08/01 01:56:20;;;;;;;1.52;1.17;;;;;;;;;;5095343;28;20056;-83
2023/08/01 01:58:47;;;;;;;1.20;1.13;;;;;;;;;;5113080;28;20109;-82
2023/08/01 02:01:15;;;;;;;0.70;0.70;;;;;;;;;;5095002;28;20051;-82
2023/08/01 02:03:42;;;;;;;0.75;0.75;;;;;;;;;;5095133;28;20430;-80
2023/08/01 02:06:09;;;;;;;1.00;0.90;;;;;;;;;;5114730;28;20051;-85
2023/08/01 02:08:37;;;;;;;0.80;0.80;;;;;;;;;;5099694;28;20101;-84
2023/08/01 02:11:04;;;;;;;1.58;0.95;;;;;;;;;;5099402;28;20052;-85
2023/08/01 02:13:32;;;;;;;1.60;0.70;;;;;;;;;;5099025;28;20043;-85
2023/08/01 02:16:01;;;;;;;0.75;0.70;;;;;;;;;;5099071;28;20081;-83
2023/08/01 02:18:28;;;;;;;0.80;0.80;;;;;;;;;;5098817;28;20044;-84
2023/08/01 02:20:56;;;;;;;1.05;0.98;;;;;;;;;;5098278;28;20116;-82
2023/08/01 02:23:23;;;;;;;0.63;0.63;;;;;;;;;;5116000;28;20043;-83
2023/08/01 02:25:50;;;;;;;0.93;0.82;;;;;;;;;;5096943;28;20393;-82
2023/08/01 02:28:17;;;;;;;8.52;0.80;;;;;;;;;;5097403;28;20055;-82
2023/08/01 02:30:44;;;;;;;1.65;0.80;;;;;;;;;;5117394;28;20071;-82
2023/08/01 02:33:12;;;;;;;0.77;0.77;;;;;;;;;;5118637;28;20108;-82
2023/08/01 02:35:40;;;;;;;0.68;0.63;;;;;;;;;;5099898;28;20048;-83
2023/08/01 02:38:07;;;;;;;3.42;0.80;;;;;;;;;;5099902;28;20096;-82
2023/08/01 02:40:35;;;;;;;0.80;0.80;;;;;;;;;;5117989;28;20524;-82
2023/08/01 02:43:02;;;;;;;0.60;0.60;;;;;;;;;;5119986;28;20051;-81
2023/08/01 02:45:29;;;;;;;2.25;0.80;;;;;;;;;;5104123;28;20097;-82
2023/08/01 02:47:56;;;;;;;2.20;0.90;;;;;;;;;;5120916;28;20044;-82
2023/08/01 02:50:24;;;;;;;2.17;0.90;;;;;;;;;;5100761;28;20050;-82
2023/08/01 02:52:51;;;;;;;2.42;1.17;;;;;;;;;;5099769;28;20073;-82
2023/08/01 02:55:19;;;;;;;2.75;0.90;;;;;;;;;;5099455;28;20112;-82
2023/08/01 02:57:46;;;;;;;4.50;1.48;;;;;;;;;;5099352;28;20051;-82
2023/08/01 03:00:13;;;;;;;2.10;0.65;;;;;;;;;;5098827;28;20054;-82
2023/08/01 03:02:41;;;;;;;1.52;0.70;;;;;;;;;;5116408;28;20108;-82
2023/08/01 03:05:09;;;;;;;2.28;0.80;;;;;;;;;;5116299;28;20051;-81
2023/08/01 03:07:36;;;;;;;0.68;0.68;;;;;;;;;;5098094;28;20112;-82
2023/08/01 03:10:04;;;;;;;1.10;0.88;;;;;;;;;;5099807;28;20039;-80
2023/08/01 03:12:31;;;;;;;2.53;0.70;;;;;;;;;;5100271;28;20130;-80
2023/08/01 03:14:58;;;;;;;1.88;0.73;;;;;;;;;;5116458;28;20074;-81
2023/08/01 03:17:25;;;;;;;0.60;0.60;;;;;;;;;;5117500;28;20052;-82
2023/08/01 03:19:53;;;;;;;0.60;0.60;;;;;;;;;;5099090;28;20052;-83
2023/08/01 03:22:20;;;;;;;2.47;0.70;;;;;;;;;;5117215;28;20051;-82
2023/08/01 03:24:47;;;;;;;0.47;0.47;;;;;;;;;;5115698;28;20046;-81
2023/08/01 03:27:14;;;;;;;0.65;0.40;;;;;;;;;;5116662;28;20473;-81
2023/08/01 03:29:42;;;;;;;0.50;0.35;;;;;;;;;;5098095;28;20051;-81
2023/08/01 03:32:09;;;;;;;0.40;0.40;;;;;;;;;;5097999;28;20458;-82
2023/08/01 03:34:38;;;;;;;0.68;0.47;;;;;;;;;;5116232;28;20094;-82
2023/08/01 03:37:06;;;;;;;0.82;0.43;;;;;;;;;;5116197;28;20495;-80
2023/08/01 03:39:33;;;;;;;0.57;0.43;;;;;;;;;;5098157;28;20047;-82
2023/08/01 03:42:00;;;;;;;1.52;0.35;;;;;;;;;;5118023;28;20059;-83
2023/08/01 03:44:27;;;;;;;0.40;0.40;;;;;;;;;;5103189;28;20047;-83
2023/08/01 03:46:55;;;;;;;1.60;0.52;;;;;;;;;;5103014;28;20118;-83
2023/08/01 03:49:22;;;;;;;1.45;0.60;;;;;;;;;;5102147;28;20044;-82
2023/08/01 03:51:49;;;;;;;0.52;0.52;;;;;;;;;;5101215;28;20082;-83
2023/08/01 03:54:17;;;;;;;0.77;0.43;;;;;;;;;;5119256;28;20081;-82
2023/08/01 03:56:45;;;;;;;1.30;0.52;;;;;;;;;;5118865;28;20415;-83
2023/08/01 03:59:13;;;;;;;2.45;0.57;;;;;;;;;;5118769;28;20051;-83
2023/08/01 04:01:41;;;;;;;0.50;0.40;;;;;;;;;;5118261;28;20048;-83
2023/08/01 04:04:09;;;;;;;0.50;0.50;;;;;;;;;;5117722;28;20052;-81
2023/08/01 04:06:36;;;;;;;0.50;0.50;;;;;;;;;;5117661;28;20108;-81
2023/08/01 04:09:06;;;;;;;0.52;0.52;;;;;;;;;;5099127;28;20048;-83
2023/08/01 04:11:33;;;;;;;0.68;0.60;;;;;;;;;;5099497;28;20047;-82
2023/08/01 04:14:01;;;;;;;0.57;0.45;;;;;;;;;;5117492;28;20461;-84
2023/08/01 04:16:28;;;;;;;0.93;0.60;;;;;;;;;;5099214;28;20039;-82
2023/08/01 04:18:55;;;;;;;0.65;0.55;;;;;;;;;;5098611;28;20061;-82
2023/08/01 04:21:22;;;;;;;2.05;0.70;;;;;;;;;;5117647;28;20081;-80
2023/08/01 04:23:49;;;;;;;0.70;0.70;;;;;;;;;;5097875;28;20044;-81
2023/08/01 04:26:17;;;;;;;1.88;1.10;;;;;;;;;;5115407;28;20503;-82
2023/08/01 04:28:46;;;;;;;1.05;0.80;;;;;;;;;;5098280;28;20516;-82
2023/08/01 04:31:14;;;;;;;0.80;0.80;;;;;;;;;;5115198;28;20100;-81
2023/08/01 04:33:41;;;;;;;2.55;0.95;;;;;;;;;;5115783;28;20047;-81
2023/08/01 04:36:08;;;;;;;1.13;1.00;;;;;;;;;;5114792;28;20051;-83
2023/08/01 04:38:36;;;;;;;2.55;1.02;;;;;;;;;;5097221;28;20051;-81
2023/08/01 04:41:03;;;;;;;2.63;1.10;;;;;;;;;;5115281;28;20109;-82
2023/08/01 04:43:30;;;;;;;1.90;1.63;;;;;;;;;;5114656;28;20427;-80
2023/08/01 04:45:57;;;;;;;4.82;1.50;;;;;;;;;;5114164;28;20096;-83
2023/08/01 04:48:24;;;;;;;2.92;1.25;;;;;;;;;;5096996;28;20048;-82
2023/08/01 04:50:52;;;;;;;2.08;1.45;;;;;;;;;;5096496;28;20052;-81
2023/08/01 04:53:19;;;;;;;1.30;1.20;;;;;;;;;;5114087;28;20461;-82
2023/08/01 04:55:46;;;;;;;1.50;1.30;;;;;;;;;;5096503;28;20055;-81
2023/08/01 04:58:13;;;;;;;1.35;1.15;;;;;;;;;;5096754;28;20048;-82
2023/08/01 05:00:41;;;;;;;1.38;1.27;;;;;;;;;;5096543;28;20507;-81
2023/08/01 05:03:09;;;;;;;1.40;1.30;;;;;;;;;;5096330;28;20077;-80
2023/08/01 05:05:36;;;;;;;2.05;1.20;;;;;;;;;;5096105;28;20048;-82
2023/08/01 05:08:03;;;;;;;2.70;1.52;;;;;;;;;;5095578;28;20047;-83
2023/08/01 05:10:31;;;;;;;1.75;1.52;;;;;;;;;;5114268;28;20089;-82
2023/08/01 05:12:58;;;;;;;1.35;1.25;;;;;;;;;;5113959;28;20051;-82
2023/08/01 05:15:25;;;;;;;5.88;1.50;;;;;;;;;;5096023;28;20043;-83
2023/08/01 05:17:55;;;;;;;1.48;1.23;;;;;;;;;;5100862;28;20082;-82
2023/08/01 05:20:23;;;;;;;1.15;1.15;;;;;;;;;;5119656;28;20047;-84
2023/08/01 05:22:50;;;;;;;2.13;1.60;;;;;;;;;;5118350;28;20401;-83
2023/08/01 05:25:19;;;;;;;2.65;1.38;;;;;;;;;;5117184;28;20143;-83
2023/08/01 05:27:46;;;;;;;1.38;1.20;;;;;;;;;;5098988;28;20055;-82
2023/08/01 05:30:14;;;;;;;4.32;1.40;;;;;;;;;;5116982;28;20439;-82
2023/08/01 05:32:43;;;;;;;4.00;1.30;;;;;;;;;;5097923;28;20092;-84
2023/08/01 05:35:10;;;;;;;1.65;1.33;;;;;;;;;;5097764;28;20051;-82
2023/08/01 05:37:38;;;;;;;1.20;0.95;;;;;;;;;;5097840;28;20492;-82
2023/08/01 05:40:05;;;;;;;1.70;0.85;;;;;;;;;;5097920;28;20504;-81
2023/08/01 05:42:32;;;;;;;1.08;0.82;;;;;;;;;;5097528;28;20138;-83
2023/08/01 05:45:00;;;;;;;2.05;0.90;;;;;;;;;;5115770;28;20052;-83
2023/08/01 05:47:27;;;;;;;1.95;0.60;;;;;;;;;;5097113;28;20054;-83
2023/08/01 05:49:54;;;;;;;0.40;0.40;;;;;;;;;;5097156;28;20050;-82
2023/08/01 05:52:22;;;;;;;1.00;0.70;;;;;;;;;;5097059;28;20066;-83
2023/08/01 05:54:49;;;;;;;2.15;0.45;;;;;;;;;;5099665;28;20055;-82
2023/08/01 05:57:16;;;;;;;2.35;0.40;;;;;;;;;;5100010;28;20052;-82
2023/08/01 05:59:44;;;;;;;1.25;0.52;;;;;;;;;;5120081;28;20104;-82
2023/08/01 06:02:11;;;;;;;3.40;0.60;;;;;;;;;;5099485;28;20503;-83
2023/08/01 06:04:38;;;;;;;1.67;0.50;;;;;;;;;;5099882;28;20499;-81
2023/08/01 06:07:06;;;;;;;1.38;0.70;;;;;;;;;;5116561;28;20044;-79
2023/08/01 06:09:33;;;;;;;4.20;0.60;;;;;;;;;;5098380;28;20040;-84
2023/08/01 06:12:00;;;;;;;1.85;0.75;;;;;;;;;;5098443;28;20134;-81
2023/08/01 06:14:28;;;;;;;1.85;0.60;;;;;;;;;;5098192;28;20069;-82
2023/08/01 06:16:55;;;;;;;4.88;1.30;;;;;;;;;;5115882;28;20418;-82
2023/08/01 06:19:22;;;;;;;1.88;1.38;;;;;;;;;;5116468;28;20059;-82
2023/08/01 06:21:50;;;;;;;2.80;1.63;;;;;;;;;;5097592;28;20048;-83
2023/08/01 06:24:17;;;;;;;2.85;1.55;;;;;;;;;;5097325;28;20510;-82
2023/08/01 06:26:44;;;;;;;1.90;1.00;;;;;;;;;;5117031;28;20104;-82
2023/08/01 06:29:11;;;;;;;2.38;0.70;;;;;;;;;;5098444;28;20066;-83
2023/08/01 06:31:38;;;;;;;1.13;1.02;;;;;;;;;;5097159;28;20043;-80
2023/08/01 06:34:06;;;;;;;1.90;0.70;;;;;;;;;;5096925;28;20072;-83
2023/08/01 06:36:33;;;;;;;1.55;0.90;;;;;;;;;;5097050;28;20059;-82
2023/08/01 06:39:00;;;;;;;1.15;0.63;;;;;;;;;;5096738;28;20051;-81
2023/08/01 06:41:27;;;;;;;1.10;0.90;;;;;;;;;;5116937;28;20056;-81
2023/08/01 06:43:55;;;;;;;4.53;1.45;;;;;;;;;;5097475;28;20048;-82
2023/08/01 06:46:22;;;;;;;6.97;1.85;;;;;;;;;;5096481;28;20043;-82
2023/08/01 06:48:49;;;;;;;2.45;1.00;;;;;;;;;;5095872;28;20044;-83
2023/08/01 06:51:16;;;;;;;2.83;1.50;;;;;;;;;;5095227;28;20044;-81
2023/08/01 06:53:44;;;;;;;2.15;1.40;;;;;;;;;;5098454;28;20050;-80
2023/08/01 06:56:11;;;;;;;3.20;0.93;;;;;;;;;;5098263;28;20469;-82
2023/08/01 06:58:38;;;;;;;1.27;0.90;;;;;;;;;;5098133;28;20051;-81
2023/08/01 07:01:05;;;;;;;1.75;0.90;;;;;;;;;;5098294;28;20047;-81
2023/08/01 07:03:33;;;;;;;4.03;1.58;;;;;;;;;;5115939;28;20473;-82
2023/08/01 07:06:00;;;;;;;0.93;0.77;;;;;;;;;;5097537;28;20184;-81
2023/08/01 07:08:27;;;;;;;0.60;0.60;;;;;;;;;;5115630;28;20052;-80
2023/08/01 07:10:55;;;;;;;3.15;2.70;;;;;;;;;;5114984;28;20415;-82
2023/08/01 07:13:22;;;;;;;2.20;1.17;;;;;;;;;;5115441;28;20048;-81
2023/08/01 07:15:49;;;;;;;0.68;0.50;;;;;;;;;;5096441;28;20047;-81
2023/08/01 07:18:18;;;;;;;2.03;0.50;;;;;;;;;;5099408;28;20047;-83
2023/08/01 07:20:46;;;;;;;1.02;0.60;;;;;;;;;;5118892;28;20048;-82
2023/08/01 07:23:13;;;;;;;0.75;0.40;;;;;;;;;;5118947;28;20104;-83
2023/08/01 07:25:40;;;;;;;0.90;0.40;;;;;;;;;;5096480;28;20515;-84
2023/08/01 07:28:07;;;;;;;1.15;0.50;;;;;;;;;;5096367;28;20048;-83
2023/08/01 07:30:35;;;;;;;0.73;0.45;;;;;;;;;;5096747;28;20097;-82
2023/08/01 07:33:02;;;;;;;0.77;0.68;;;;;;;;;;5097226;28;20044;-80
2023/08/01 07:35:29;;;;;;;0.55;0.55;;;;;;;;;;5097111;28;20048;-81
2023/08/01 07:37:56;;;;;;;0.68;0.68;;;;;;;;;;5095845;28;20050;-81
2023/08/01 07:40:23;;;;;;;0.55;0.40;;;;;;;;;;5097410;28;20419;-81
2023/08/01 07:42:51;;;;;;;0.73;0.50;;;;;;;;;;5096808;28;20075;-81
2023/08/01 07:45:19;;;;;;;2.30;0.30;;;;;;;;;;5097866;28;20052;-80
2023/08/01 07:47:46;;;;;;;0.40;0.40;;;;;;;;;;5096346;28;20044;-81
2023/08/01 07:50:14;;;;;;;1.67;0.47;;;;;;;;;;5096532;28;20040;-81
2023/08/01 07:52:41;;;;;;;0.50;0.40;;;;;;;;;;5096629;28;20097;-80
2023/08/01 07:55:08;;;;;;;0.30;0.30;;;;;;;;;;5096766;28;20044;-81
2023/08/01 07:57:35;;;;;;;0.40;0.40;;;;;;;;;;5094855;28;20127;-79
2023/08/01 08:00:03;;;;;;;0.40;0.40;;;;;;;;;;5095955;28;20074;-80
2023/08/01 08:02:30;;;;;;;0.98;0.52;;;;;;;;;;5094742;28;20055;-80
2023/08/01 08:04:58;;;;;;;0.95;0.70;;;;;;;;;;5095222;28;20048;-82
2023/08/01 08:07:25;;;;;;;0.50;0.30;;;;;;;;;;5094319;28;20098;-81
2023/08/01 08:09:54;;;;;;;0.40;0.40;;;;;;;;;;5095623;28;20044;-83
2023/08/01 08:12:22;;;;;;;0.25;0.25;;;;;;;;;;5095414;28;20055;-81
2023/08/01 08:14:50;;;;;;;0.40;0.40;;;;;;;;;;5095718;28;20044;-80
2023/08/01 08:17:17;;;;;;;4.07;0.63;;;;;;;;;;5094344;28;20195;-80
2023/08/01 08:19:45;;;;;;;0.20;0.20;;;;;;;;;;5097200;28;20048;-81
2023/08/01 08:22:12;;;;;;;0.20;0.20;;;;;;;;;;5094376;28;20519;-81
2023/08/01 08:24:39;;;;;;;2.00;0.43;;;;;;;;;;5094691;28;20113;-80
2023/08/01 08:27:07;;;;;;;1.48;0.40;;;;;;;;;;5094060;28;20117;-81
2023/08/01 08:29:34;;;;;;;0.40;0.40;;;;;;;;;;5099935;28;20184;-83
2023/08/01 08:32:01;;;;;;;0.35;0.20;;;;;;;;;;5099139;28;20094;-83
2023/08/01 08:34:28;;;;;;;0.30;0.30;;;;;;;;;;5098082;28;20044;-81
2023/08/01 08:36:56;;;;;;;0.20;0.20;;;;;;;;;;5099332;28;20055;-82
2023/08/01 08:39:23;;;;;;;0.20;0.20;;;;;;;;;;5099001;28;20056;-82
2023/08/01 08:41:51;;;;;;;0.30;0.30;;;;;;;;;;5098229;28;20051;-81
2023/08/01 08:44:24;;;;;;;0.30;0.20;;;;;;;;;;5097948;28;20055;-79
2023/08/01 08:46:52;;;;;;;1.75;0.30;;;;;;;;;;5096207;28;20054;-82
2023/08/01 08:49:22;;;;;;;0.52;0.30;;;;;;;;;;5097673;28;20514;-80
2023/08/01 08:51:49;;;;;;;0.40;0.40;;;;;;;;;;5095920;28;20048;-82
2023/08/01 08:54:17;;;;;;;1.48;0.40;;;;;;;;;;5098348;28;20047;-83
2023/08/01 08:56:44;;;;;;;0.55;0.55;;;;;;;;;;5097031;28;20113;-81
2023/08/01 08:59:12;;;;;;;1.13;0.50;;;;;;;;;;5096866;28;20486;-81
2023/08/01 09:01:40;;;;;;;0.63;0.47;;;;;;;;;;5097315;28;20500;-82
2023/08/01 09:04:07;;;;;;;0.82;0.70;;;;;;;;;;5095358;28;20105;-81
2023/08/01 09:06:42;;;;;;;0.80;0.80;;;;;;;;;;5103338;28;20113;-85
2023/08/01 09:09:09;;;;;;;0.88;0.88;;;;;;;;;;5107050;28;20496;-82
2023/08/01 09:11:41;;;;;;;2.65;1.40;;;;;;;;;;5097241;28;20051;-83
2023/08/01 09:14:09;;;;;;;0.70;0.70;;;;;;;;;;5097320;28;20045;-82
2023/08/01 09:16:36;;;;;;;1.15;0.80;;;;;;;;;;5098142;28;20048;-80
2023/08/01 09:19:03;;;;;;;1.83;0.82;;;;;;;;;;5097940;28;20140;-84
2023/08/01 09:21:35;;;;;;;0.65;0.65;;;;;;;;;;5095976;28;20436;-82
2023/08/01 09:24:12;;;;;;;1.30;0.70;;;;;;;;;;5097244;28;20060;-81
2023/08/01 09:26:40;;;;;;;0.50;0.50;;;;;;;;;;5112551;28;20056;-80
2023/08/01 09:29:07;;;;;;;1.00;0.60;;;;;;;;;;5098719;28;20048;-83
2023/08/01 09:31:41;;;;;;;1.15;0.50;;;;;;;;;;5098881;28;20048;-82
2023/08/01 09:34:28;;;;;;;4.95;0.60;;;;;;;;;;5097541;28;20044;-80
2023/08/01 09:36:59;;;;;;;0.63;0.50;;;;;;;;;;5115985;28;20104;-84
2023/08/01 09:39:26;;;;;;;2.00;0.55;;;;;;;;;;5115368;28;20054;-83
2023/08/01 09:41:57;;;;;;;0.60;0.60;;;;;;;;;;5097412;28;20062;-83
2023/08/01 09:44:26;;;;;;;2.60;2.40;;;;;;;;;;5096499;28;20054;-80
2023/08/01 09:47:00;;;;;;;4.75;4.35;;;;;;;;;;5115039;28;20040;-82
2023/08/01 09:49:31;;;;;;;2.25;2.00;;;;;;;;;;5096773;28;20055;-84
2023/08/01 09:51:58;;;;;;;3.38;1.63;;;;;;;;;;5114419;28;20056;-79
2023/08/01 09:54:26;;;;;;;3.08;0.70;;;;;;;;;;5115342;28;20043;-80
2023/08/01 09:56:54;;;;;;;0.70;0.70;;;;;;;;;;5097822;28;20430;-80
2023/08/01 09:59:23;;;;;;;4.07;1.50;;;;;;;;;;5114022;28;20055;-80
2023/08/01 10:01:51;;;;;;;2.60;0.90;;;;;;;;;;5095881;28;20105;-81
2023/08/01 10:04:23;;;;;;;2.88;0.80;;;;;;;;;;5116957;28;20055;-83
2023/08/01 10:06:55;;;;;;;2.20;0.70;;;;;;;;;;5100546;28;20043;-81
2023/08/01 10:09:22;;;;;;;0.85;0.50;;;;;;;;;;5101607;28;20439;-83
2023/08/01 10:11:51;;;;;;;2.65;2.45;;;;;;;;;;5118528;28;20100;-84
2023/08/01 10:14:20;;;;;;;1.10;0.70;;;;;;;;;;5100178;28;20043;-83
2023/08/01 10:16:48;;;;;;;3.45;0.70;;;;;;;;;;5117955;28;20067;-84
2023/08/01 10:19:16;;;;;;;0.85;0.60;;;;;;;;;;5098720;28;20075;-83
2023/08/01 10:21:43;;;;;;;0.90;0.90;;;;;;;;;;5098886;28;20134;-83
2023/08/01 10:24:12;;;;;;;1.13;0.40;;;;;;;;;;5116501;28;20052;-81
2023/08/01 10:26:39;;;;;;;2.17;1.60;;;;;;;;;;5097816;28;20055;-82
2023/08/01 10:29:07;;;;;;;0.50;0.50;;;;;;;;;;5097562;28;20144;-82
2023/08/01 10:31:34;;;;;;;0.90;0.60;;;;;;;;;;5115440;28;20059;-80
2023/08/01 10:34:06;;;;;;;1.50;0.80;;;;;;;;;;5097542;28;20054;-81
2023/08/01 10:36:33;;;;;;;0.80;0.80;;;;;;;;;;5115403;28;20043;-82
2023/08/01 10:39:01;;;;;;;1.17;0.70;;;;;;;;;;5096445;28;20044;-82
2023/08/01 10:41:28;;;;;;;0.50;0.50;;;;;;;;;;5097292;28;20055;-83
2023/08/01 10:44:12;;;;;;;3.70;0.60;;;;;;;;;;5096367;28;20052;-83
2023/08/01 10:46:56;;;;;;;3.10;0.88;;;;;;;;;;5096469;28;20051;-82
2023/08/01 10:49:35;;;;;;;0.80;0.80;;;;;;;;;;5095908;28;20047;-82
2023/08/01 10:52:03;;;;;;;0.50;0.50;;;;;;;;;;5096920;28;20054;-82
2023/08/01 10:54:32;;;;;;;1.27;0.80;;;;;;;;;;5099691;28;20044;-81
2023/08/01 10:56:59;;;;;;;1.65;0.95;;;;;;;;;;5101708;28;20125;-81
2023/08/01 10:59:27;;;;;;;0.80;0.80;;;;;;;;;;5118181;28;20101;-83
2023/08/01 11:01:58;;;;;;;1.63;0.80;;;;;;;;;;5104825;28;20057;-83
2023/08/01 11:04:25;;;;;;;0.90;0.90;;;;;;;;;;5104419;28;20056;-81
2023/08/01 11:06:56;;;;;;;0.70;0.70;;;;;;;;;;5102542;28;20043;-83
2023/08/01 11:09:24;;;;;;;1.83;1.00;;;;;;;;;;5119751;28;20065;-83
2023/08/01 11:11:56;;;;;;;2.15;2.05;;;;;;;;;;5119997;28;20632;-82
2023/08/01 11:14:24;;;;;;;1.10;1.10;;;;;;;;;;5119807;28;20498;-81
2023/08/01 11:16:51;;;;;;;1.00;0.95;;;;;;;;;;5102127;28;20172;-82
2023/08/01 11:19:24;;;;;;;1.00;1.00;;;;;;;;;;5101397;28;20048;-82
2023/08/01 11:21:52;;;;;;;1.20;1.20;;;;;;;;;;5100575;28;20395;-83
2023/08/01 11:24:20;;;;;;;1.00;1.00;;;;;;;;;;5119328;28;20047;-80
2023/08/01 11:26:48;;;;;;;1.40;1.30;;;;;;;;;;5119161;28;20048;-81
2023/08/01 11:29:16;;;;;;;1.13;1.13;;;;;;;;;;5100310;28;20479;-80
2023/08/01 11:31:57;;;;;;;1.30;1.30;;;;;;;;;;5119528;28;20093;-80
2023/08/01 11:34:24;;;;;;;1.60;1.50;;;;;;;;;;5119588;28;20048;-79
2023/08/01 11:36:52;;;;;;;1.45;1.35;;;;;;;;;;5119598;28;20051;-81
2023/08/01 11:39:22;;;;;;;1.55;1.45;;;;;;;;;;5100629;28;20134;-80
2023/08/01 11:41:50;;;;;;;1.50;1.40;;;;;;;;;;5123568;28;20044;-82
2023/08/01 11:44:17;;;;;;;1.10;1.10;;;;;;;;;;5103942;28;20104;-83
2023/08/01 11:46:44;;;;;;;1.95;1.42;;;;;;;;;;5103618;28;20043;-81
2023/08/01 11:49:14;;;;;;;1.45;1.35;;;;;;;;;;5102753;28;20518;-81
2023/08/01 11:51:43;;;;;;;2.42;1.60;;;;;;;;;;5103958;28;20043;-81
2023/08/01 11:54:11;;;;;;;1.55;1.40;;;;;;;;;;5103112;28;20064;-82
2023/08/01 11:56:39;;;;;;;1.40;1.30;;;;;;;;;;5102638;28;20138;-82
2023/08/01 11:59:11;;;;;;;1.95;1.13;;;;;;;;;;5101819;28;20047;-81
2023/08/01 12:01:39;;;;;;;1.67;1.40;;;;;;;;;;5120839;28;20056;-83
2023/08/01 12:04:06;;;;;;;1.20;1.20;;;;;;;;;;5100659;28;20047;-81
2023/08/01 12:06:34;;;;;;;1.33;1.23;;;;;;;;;;5119134;28;20130;-81
2023/08/01 12:09:14;;;;;;;1.35;1.25;;;;;;;;;;5118760;28;20491;-81
2023/08/01 12:11:42;;;;;;;1.50;1.35;;;;;;;;;;5118938;28;20044;-79
2023/08/01 12:14:13;;;;;;;1.60;1.50;;;;;;;;;;5100216;28;20069;-79
2023/08/01 12:16:44;;;;;;;2.38;1.92;;;;;;;;;;5098686;28;20059;-78
2023/08/01 12:19:12;;;;;;;4.20;1.48;;;;;;;;;;5100134;28;20044;-79
2023/08/01 12:21:39;;;;;;;1.75;1.60;;;;;;;;;;5118312;28;20101;-83
2023/08/01 12:24:06;;;;;;;1.50;1.40;;;;;;;;;;5122451;28;20501;-79
2023/08/01 12:26:34;;;;;;;1.67;1.58;;;;;;;;;;5121320;28;20055;-80
2023/08/01 12:29:01;;;;;;;3.58;1.48;;;;;;;;;;5118846;28;20047;-80
2023/08/01 12:31:28;;;;;;;2.13;1.20;;;;;;;;;;5103007;28;20050;-79
2023/08/01 12:33:56;;;;;;;1.60;1.50;;;;;;;;;;5121231;28;20059;-78
2023/08/01 12:36:23;;;;;;;2.13;1.40;;;;;;;;;;5120389;28;20043;-81
2023/08/01 12:38:50;;;;;;;3.80;1.83;;;;;;;;;;5102394;28;20043;-80
2023/08/01 12:41:18;;;;;;;1.73;1.50;;;;;;;;;;5101565;28;20122;-80
2023/08/01 12:43:45;;;;;;;1.92;1.50;;;;;;;;;;5101014;28;20403;-79
2023/08/01 12:46:12;;;;;;;3.63;1.63;;;;;;;;;;5101009;28;20044;-80
2023/08/01 12:48:40;;;;;;;1.33;1.30;;;;;;;;;;5118111;28;20070;-80
2023/08/01 12:51:07;;;;;;;2.90;1.52;;;;;;;;;;5118764;28;20047;-80
2023/08/01 12:53:34;;;;;;;1.60;1.50;;;;;;;;;;5117542;28;20096;-80
2023/08/01 12:56:02;;;;;;;1.70;1.55;;;;;;;;;;5116960;28;20044;-77
2023/08/01 12:58:29;;;;;;;3.50;1.80;;;;;;;;;;5116433;28;20515;-79
2023/08/01 13:00:56;;;;;;;1.60;1.50;;;;;;;;;;5117901;28;20072;-80
2023/08/01 13:03:24;;;;;;;1.80;1.70;;;;;;;;;;5100073;28;20043;-79
2023/08/01 13:05:52;;;;;;;1.80;1.67;;;;;;;;;;5098755;28;20058;-79
2023/08/01 13:08:20;;;;;;;3.75;1.83;;;;;;;;;;5099217;28;20047;-78
2023/08/01 13:10:49;;;;;;;2.08;1.70;;;;;;;;;;5098268;28;20473;-81
2023/08/01 13:13:17;;;;;;;1.92;1.70;;;;;;;;;;5098068;28;20047;-81
2023/08/01 13:15:44;;;;;;;2.53;1.85;;;;;;;;;;5097334;28;20047;-79
2023/08/01 13:18:12;;;;;;;2.53;1.88;;;;;;;;;;5103183;28;20051;-79
2023/08/01 13:20:39;;;;;;;2.47;1.58;;;;;;;;;;5106942;28;20062;-79
2023/08/01 13:23:07;;;;;;;1.70;1.42;;;;;;;;;;5120691;28;20112;-81
2023/08/01 13:25:34;;;;;;;1.50;1.50;;;;;;;;;;5102657;28;20075;-80
2023/08/01 13:28:01;;;;;;;2.55;1.83;;;;;;;;;;5119152;28;20085;-80
2023/08/01 13:30:29;;;;;;;1.73;1.63;;;;;;;;;;5122473;28;20044;-79
2023/08/01 13:32:56;;;;;;;1.92;1.50;;;;;;;;;;5119498;28;20044;-79
2023/08/01 13:35:23;;;;;;;3.17;1.70;;;;;;;;;;5120272;28;20055;-79
2023/08/01 13:37:50;;;;;;;5.47;1.80;;;;;;;;;;5120667;28;20472;-82
2023/08/01 13:40:17;;;;;;;1.80;1.70;;;;;;;;;;5118147;28;20047;-81
2023/08/01 13:42:45;;;;;;;1.83;1.73;;;;;;;;;;5101331;28;20048;-78
2023/08/01 13:45:12;;;;;;;1.90;1.80;;;;;;;;;;5118525;28;20052;-81
2023/08/01 13:47:39;;;;;;;2.30;1.88;;;;;;;;;;5101230;28;20519;-78
2023/08/01 13:50:07;;;;;;;2.20;2.03;;;;;;;;;;5101477;28;20047;-82
2023/08/01 13:52:34;;;;;;;6.10;2.92;;;;;;;;;;5118653;28;20048;-79
2023/08/01 13:55:02;;;;;;;4.07;1.55;;;;;;;;;;5099609;28;20092;-81
2023/08/01 13:57:30;;;;;;;4.53;1.80;;;;;;;;;;5098715;28;20542;-81
2023/08/01 13:59:58;;;;;;;2.25;1.60;;;;;;;;;;5099313;28;20338;-81
2023/08/01 14:02:39;;;;;;;1.60;1.38;;;;;;;;;;5101748;28;20051;-80
2023/08/01 14:05:06;;;;;;;1.38;1.33;;;;;;;;;;5117544;28;20047;-76
2023/08/01 14:07:37;;;;;;;2.78;1.40;;;;;;;;;;5118624;28;20089;-78
2023/08/01 14:10:09;;;;;;;1.50;1.40;;;;;;;;;;5100754;28;20043;-83
2023/08/01 14:12:36;;;;;;;3.75;1.30;;;;;;;;;;5100374;28;20047;-80
2023/08/01 14:15:04;;;;;;;1.58;1.48;;;;;;;;;;5099805;28;20119;-81
2023/08/01 14:17:31;;;;;;;1.33;1.23;;;;;;;;;;5099398;28;20051;-83
2023/08/01 14:19:59;;;;;;;1.70;1.38;;;;;;;;;;5116765;28;20047;-81
2023/08/01 14:22:26;;;;;;;1.40;1.30;;;;;;;;;;5118807;28;20061;-82
2023/08/01 14:24:53;;;;;;;2.42;1.13;;;;;;;;;;5098022;28;20044;-80
2023/08/01 14:27:21;;;;;;;1.35;1.10;;;;;;;;;;5120234;28;20104;-81
2023/08/01 14:29:48;;;;;;;2.17;1.10;;;;;;;;;;5122491;28;20043;-80
2023/08/01 14:32:18;;;;;;;1.30;1.20;;;;;;;;;;5102207;28;20048;-81
2023/08/01 14:34:45;;;;;;;0.88;0.88;;;;;;;;;;5102480;28;20047;-81
2023/08/01 14:37:12;;;;;;;1.65;1.00;;;;;;;;;;5101860;28;20051;-82
2023/08/01 14:39:40;;;;;;;1.33;0.82;;;;;;;;;;5102895;28;20587;-80
2023/08/01 14:42:07;;;;;;;3.47;0.90;;;;;;;;;;5121284;28;20419;-81
2023/08/01 14:44:34;;;;;;;1.05;0.77;;;;;;;;;;5120023;28;20119;-83
2023/08/01 14:47:01;;;;;;;1.95;0.85;;;;;;;;;;5101146;28;20052;-79